createdAt,value
2024-01-11T00:01:47.651Z,23.67
2024-01-11T00:04:49.321Z,19.40
2024-01-11T00:07:51.015Z,19.83
2024-01-11T00:10:52.650Z,23.27
2024-01-11T00:13:54.514Z,22.98
2024-01-11T00:16:56.441Z,20.63
2024-01-11T00:19:58.206Z,15.95
2024-01-11T00:23:00.092Z,15.50
2024-01-11T00:26:01.908Z,22.33
2024-01-11T00:29:03.670Z,31.52
2024-01-11T00:32:05.707Z,19.10
2024-01-11T00:35:07.464Z,16.90
2024-01-11T00:38:09.210Z,16.83
2024-01-11T00:41:10.902Z,14.63
2024-01-11T00:44:12.598Z,14.25
2024-01-11T00:47:14.333Z,14.63
2024-01-11T00:50:16.100Z,12.63
2024-01-11T00:53:18.090Z,13.85
2024-01-11T00:56:20.775Z,11.88
2024-01-11T00:59:22.451Z,13.73
2024-01-11T01:02:24.399Z,13.13
2024-01-11T01:05:26.329Z,13.30
2024-01-11T01:08:28.403Z,22.08
2024-01-11T01:11:30.260Z,15.83
2024-01-11T01:14:32.145Z,19.58
2024-01-11T01:17:34.042Z,17.15
2024-01-11T01:20:35.784Z,14.93
2024-01-11T01:23:37.635Z,16.40
2024-01-11T01:26:39.522Z,17.88
2024-01-11T01:29:41.273Z,17.50
2024-01-11T01:32:43.234Z,16.70
2024-01-11T01:35:45.094Z,15.00
2024-01-11T01:38:46.825Z,14.93
2024-01-11T01:41:48.407Z,12.73
2024-01-11T01:44:50.004Z,14.88
2024-01-11T01:47:52.096Z,15.75
2024-01-11T01:50:54.028Z,13.77
2024-01-11T01:53:57.754Z,14.70
2024-01-11T01:57:01.862Z,14.27
2024-01-11T02:00:04.267Z,15.73
2024-01-11T02:03:16.235Z,15.70
2024-01-11T02:06:19.589Z,15.30
2024-01-11T02:09:21.811Z,15.55
2024-01-11T02:12:24.764Z,13.27
2024-01-11T02:15:26.587Z,11.80
2024-01-11T02:18:28.593Z,13.35
2024-01-11T02:21:32.272Z,15.35
2024-01-11T02:24:33.958Z,14.50
2024-01-11T02:27:51.894Z,15.05
2024-01-11T02:30:53.593Z,13.63
2024-01-11T02:33:56.696Z,13.40
2024-01-11T02:36:58.612Z,12.93
2024-01-11T02:40:00.409Z,12.25
2024-01-11T02:43:09.882Z,12.70
2024-01-11T02:46:11.731Z,14.82
2024-01-11T02:49:13.488Z,13.05
2024-01-11T02:52:15.417Z,12.13
2024-01-11T02:55:17.333Z,14.00
2024-01-11T02:58:19.246Z,14.15
2024-01-11T03:01:21.620Z,11.55
2024-01-11T03:04:23.234Z,13.45
2024-01-11T03:07:24.891Z,13.18
2024-01-11T03:10:26.458Z,14.65
2024-01-11T03:13:28.196Z,14.35
2024-01-11T03:16:30.052Z,13.30
2024-01-11T03:19:31.738Z,14.05
2024-01-11T03:22:33.395Z,13.60
2024-01-11T03:25:35.580Z,12.77
2024-01-11T03:28:37.292Z,12.32
2024-01-11T03:31:42.442Z,13.23
2024-01-11T03:34:44.114Z,12.23
2024-01-11T03:37:46.127Z,14.32
2024-01-11T03:40:47.823Z,12.45
2024-01-11T03:43:50.912Z,11.43
2024-01-11T03:49:55.051Z,11.60
2024-01-11T03:52:56.761Z,12.50
2024-01-11T03:55:58.562Z,12.60
2024-01-11T03:59:00.322Z,13.55
2024-01-11T04:02:02.237Z,14.02
2024-01-11T04:05:04.733Z,13.27
2024-01-11T04:08:07.933Z,12.73
2024-01-11T04:11:09.727Z,13.18
2024-01-11T04:14:11.592Z,14.18
2024-01-11T04:17:13.596Z,12.82
2024-01-11T04:20:15.415Z,14.45
2024-01-11T04:23:17.128Z,14.82
2024-01-11T04:26:19.305Z,13.35
2024-01-11T04:29:20.936Z,13.93
2024-01-11T04:32:22.614Z,14.20
2024-01-11T04:35:24.339Z,13.35
2024-01-11T04:38:26.164Z,12.27
2024-01-11T04:41:27.925Z,14.30
2024-01-11T04:44:29.675Z,13.77
2024-01-11T04:47:31.678Z,12.57
2024-01-11T04:50:33.569Z,15.40
2024-01-11T04:53:38.267Z,11.85
2024-01-11T04:56:39.984Z,12.57
2024-01-11T04:59:41.900Z,12.48
2024-01-11T05:02:43.689Z,12.13
2024-01-11T05:05:45.540Z,12.15
2024-01-11T05:08:48.194Z,13.02
2024-01-11T05:11:49.917Z,11.55
2024-01-11T05:14:51.710Z,15.13
2024-01-11T05:17:53.737Z,12.43
2024-01-11T05:20:55.645Z,12.40
2024-01-11T05:23:57.407Z,13.05
2024-01-11T05:27:00.330Z,12.52
2024-01-11T05:33:04.462Z,10.70
2024-01-11T05:36:07.377Z,12.88
2024-01-11T05:39:09.105Z,13.13
2024-01-11T05:42:10.695Z,12.57
2024-01-11T05:45:12.371Z,11.98
2024-01-11T05:48:20.355Z,12.20
2024-01-11T05:51:22.251Z,14.25
2024-01-11T05:54:24.119Z,13.65
2024-01-11T05:57:25.807Z,14.27
2024-01-11T06:00:27.692Z,16.13
2024-01-11T06:03:29.458Z,13.85
2024-01-11T06:06:31.256Z,13.02
2024-01-11T06:09:32.969Z,12.57
2024-01-11T06:12:34.728Z,13.25
2024-01-11T06:15:36.496Z,11.70
2024-01-11T06:18:38.279Z,12.38
2024-01-11T06:21:40.040Z,12.55
2024-01-11T06:24:41.748Z,12.60
2024-01-11T06:27:44.892Z,11.75
2024-01-11T06:33:51.416Z,24.92
2024-01-11T06:36:53.671Z,13.73
2024-01-11T06:39:55.332Z,14.10
2024-01-11T06:42:56.991Z,11.90
2024-01-11T06:46:04.184Z,11.70
2024-01-11T06:49:06.391Z,11.95
2024-01-11T06:52:08.282Z,10.55
2024-01-11T06:55:11.901Z,11.88
2024-01-11T06:58:14.010Z,14.48
2024-01-11T07:01:15.931Z,13.67
2024-01-11T07:04:17.867Z,18.35
2024-01-11T07:07:19.787Z,13.88
2024-01-11T07:10:21.412Z,14.02
2024-01-11T07:13:23.036Z,14.27
2024-01-11T07:16:24.919Z,15.85
2024-01-11T07:19:26.668Z,18.70
2024-01-11T07:22:28.489Z,18.02
2024-01-11T07:25:30.177Z,17.27
2024-01-11T07:28:31.919Z,16.40
2024-01-11T07:31:33.682Z,14.70
2024-01-11T07:34:35.526Z,25.45
2024-01-11T07:37:40.547Z,25.45
2024-01-11T07:40:43.763Z,19.42
2024-01-11T07:43:53.481Z,16.45
2024-01-11T07:47:00.120Z,15.88
2024-01-11T07:50:14.043Z,15.77
2024-01-11T07:53:16.221Z,16.00
2024-01-11T07:56:18.427Z,14.17
2024-01-11T07:59:20.208Z,13.05
2024-01-11T08:02:22.883Z,12.20
2024-01-11T08:05:24.693Z,16.10
2024-01-11T08:08:26.899Z,15.40
2024-01-11T08:11:31.410Z,18.15
2024-01-11T08:14:34.346Z,17.95
2024-01-11T08:17:38.587Z,14.48
2024-01-11T08:20:40.968Z,12.43
2024-01-11T08:23:47.283Z,14.07
2024-01-11T08:26:49.611Z,15.30
2024-01-11T08:29:51.406Z,17.10
2024-01-11T08:32:53.596Z,18.73
2024-01-11T08:35:55.692Z,23.17
2024-01-11T08:38:57.433Z,22.85
2024-01-11T08:41:59.191Z,19.73
2024-01-11T08:45:07.560Z,17.20
2024-01-11T08:48:10.267Z,16.13
2024-01-11T08:51:12.287Z,19.50
2024-01-11T08:54:17.533Z,20.25
2024-01-11T08:57:19.516Z,23.27
2024-01-11T09:00:21.385Z,18.45
2024-01-11T09:03:23.489Z,17.30
2024-01-11T09:06:25.360Z,18.20
2024-01-11T09:09:27.301Z,17.20
2024-01-11T09:12:29.257Z,19.27
2024-01-11T09:15:31.603Z,21.55
2024-01-11T09:18:33.603Z,20.83
2024-01-11T09:21:35.591Z,27.15
2024-01-11T09:24:39.808Z,26.95
2024-01-11T09:27:42.201Z,29.50
2024-01-11T09:30:44.209Z,25.00
2024-01-11T09:33:46.775Z,22.80
2024-01-11T09:36:48.533Z,24.92
2024-01-11T09:39:50.255Z,25.55
2024-01-11T09:42:51.885Z,23.35
2024-01-11T09:45:54.805Z,21.75
2024-01-11T09:48:57.381Z,20.50
2024-01-11T09:51:59.406Z,23.08
2024-01-11T09:55:01.849Z,22.80
2024-01-11T09:58:05.417Z,22.37
2024-01-11T10:01:11.672Z,22.05
2024-01-11T10:04:15.680Z,21.65
2024-01-11T10:07:21.949Z,21.17
2024-01-11T10:10:23.682Z,21.83
2024-01-11T10:13:31.931Z,41.83
2024-01-11T10:16:33.837Z,22.02
2024-01-11T10:19:35.731Z,17.40
2024-01-11T10:22:37.800Z,17.10
2024-01-11T10:25:39.837Z,18.15
2024-01-11T10:28:45.986Z,15.30
2024-01-11T10:31:47.716Z,16.55
2024-01-11T10:34:50.173Z,14.93
2024-01-11T10:37:55.147Z,17.73
2024-01-11T10:40:59.544Z,19.63
2024-01-11T10:44:04.175Z,19.63
2024-01-11T10:47:10.765Z,18.20
2024-01-11T10:50:13.765Z,17.58
2024-01-11T10:53:36.954Z,16.23
2024-01-11T10:56:42.325Z,19.25
2024-01-11T10:59:45.224Z,19.90
2024-01-11T11:02:48.704Z,19.88
2024-01-11T11:08:54.621Z,18.38
2024-01-11T11:11:59.808Z,17.40
2024-01-11T11:15:03.918Z,17.05
2024-01-11T11:18:06.669Z,19.48
2024-01-11T11:21:14.844Z,17.40
2024-01-11T11:24:20.642Z,17.15
2024-01-11T11:27:22.420Z,16.95
2024-01-11T11:30:24.618Z,15.60
2024-01-11T11:33:27.527Z,16.95
2024-01-11T11:36:29.834Z,15.32
2024-01-11T11:39:32.965Z,16.55
2024-01-11T11:42:38.148Z,17.17
2024-01-11T11:45:42.287Z,17.95
2024-01-11T11:48:47.175Z,18.80
2024-01-11T11:51:49.149Z,18.42
2024-01-11T11:54:51.522Z,19.75
2024-01-11T11:57:56.802Z,15.10
2024-01-11T12:00:59.995Z,13.63
2024-01-11T12:04:03.839Z,15.10
2024-01-11T12:07:06.151Z,28.50
2024-01-11T12:10:08.083Z,23.55
2024-01-11T12:13:09.929Z,19.20
2024-01-11T12:16:13.028Z,17.55
2024-01-11T12:19:15.004Z,16.55
2024-01-11T12:22:16.761Z,16.48
2024-01-11T12:25:18.641Z,16.00
2024-01-11T12:28:20.402Z,13.50
2024-01-11T12:31:22.629Z,14.98
2024-01-11T12:34:25.708Z,14.63
2024-01-11T12:37:27.682Z,13.77
2024-01-11T12:40:29.461Z,11.95
2024-01-11T12:43:31.502Z,10.93
2024-01-11T12:46:34.041Z,9.23
2024-01-11T12:49:36.058Z,8.82
2024-01-11T12:52:37.786Z,7.57
2024-01-11T12:55:48.292Z,8.20
2024-01-11T12:59:08.101Z,6.82
2024-01-11T13:02:10.351Z,9.48
2024-01-11T13:05:12.168Z,8.95
2024-01-11T13:08:14.214Z,9.48
2024-01-11T13:11:18.502Z,9.38
2024-01-11T13:14:21.060Z,8.98
2024-01-11T13:17:23.279Z,10.32
2024-01-11T13:20:26.761Z,10.52
2024-01-11T13:23:29.956Z,12.30
2024-01-11T13:26:31.676Z,12.88
2024-01-11T13:29:33.460Z,8.98
2024-01-11T13:32:36.200Z,9.07
2024-01-11T13:35:42.313Z,7.57
2024-01-11T13:38:44.454Z,5.57
2024-01-11T13:41:47.338Z,5.53
2024-01-11T13:44:49.114Z,8.23
2024-01-11T13:47:54.652Z,6.53
2024-01-11T13:50:56.665Z,11.57
2024-01-11T13:53:58.808Z,11.00
2024-01-11T13:57:00.548Z,5.22
2024-01-11T14:00:02.213Z,4.72
2024-01-11T14:03:07.145Z,5.88
2024-01-11T14:06:09.476Z,5.10
2024-01-11T14:09:11.485Z,5.72
2024-01-11T14:12:13.311Z,4.88
2024-01-11T14:15:15.335Z,4.60
2024-01-11T14:18:17.377Z,6.28
2024-01-11T14:21:19.283Z,4.95
2024-01-11T14:24:26.613Z,11.23
2024-01-11T14:27:34.289Z,6.05
2024-01-11T14:30:36.327Z,7.07
2024-01-11T14:33:38.329Z,7.10
2024-01-11T14:36:40.114Z,5.75
2024-01-11T14:45:01.661Z,7.13
2024-01-11T14:48:05.203Z,5.13
2024-01-11T14:51:08.880Z,4.75
2024-01-11T14:54:10.650Z,3.50
2024-01-11T14:57:14.126Z,4.30
2024-01-11T15:00:17.448Z,4.93
2024-01-11T15:03:20.516Z,8.57
2024-01-11T15:06:22.397Z,8.15
2024-01-11T15:09:27.501Z,10.32
2024-01-11T15:12:29.625Z,16.25
2024-01-11T15:15:31.444Z,9.02
2024-01-11T15:18:33.320Z,21.35
2024-01-11T15:21:37.481Z,25.13
2024-01-11T15:24:41.911Z,24.42
2024-01-11T15:27:43.816Z,25.15
2024-01-11T15:30:46.325Z,30.67
2024-01-11T15:33:48.266Z,29.57
2024-01-11T15:36:54.212Z,20.00
2024-01-11T15:39:56.994Z,16.23
2024-01-11T15:43:00.990Z,18.63
2024-01-11T15:46:02.745Z,31.45
2024-01-11T15:49:04.522Z,18.75
2024-01-11T15:52:07.583Z,18.30
2024-01-11T15:55:10.672Z,30.27
2024-01-11T16:01:14.804Z,19.80
2024-01-11T16:04:16.517Z,22.88
2024-01-11T16:07:18.378Z,12.07
2024-01-11T16:10:20.299Z,10.23
2024-01-11T16:13:22.322Z,16.48
2024-01-11T16:16:24.586Z,15.85
2024-01-11T16:19:27.059Z,16.10
2024-01-11T16:22:29.290Z,14.17
2024-01-11T16:25:31.179Z,16.50
2024-01-11T16:28:35.456Z,14.95
2024-01-11T16:31:39.410Z,11.23
2024-01-11T16:34:41.304Z,12.18
2024-01-11T16:37:42.957Z,13.35
2024-01-11T16:40:44.806Z,15.50
2024-01-11T16:43:46.636Z,12.93
2024-01-11T16:46:48.787Z,12.02
2024-01-11T16:49:50.753Z,26.00
2024-01-11T16:52:52.685Z,15.32
2024-01-11T16:55:54.569Z,32.70
2024-01-11T16:58:56.401Z,13.77
2024-01-11T17:01:58.197Z,15.68
2024-01-11T17:05:00.039Z,26.98
2024-01-11T17:08:02.666Z,12.77
2024-01-11T17:11:04.716Z,23.52
2024-01-11T17:14:07.297Z,15.23
2024-01-11T17:17:09.951Z,15.32
2024-01-11T17:20:14.893Z,12.32
2024-01-11T17:23:18.329Z,13.23
2024-01-11T17:26:20.170Z,11.07
2024-01-11T17:29:23.851Z,12.95
2024-01-11T17:32:25.648Z,13.50
2024-01-11T17:35:27.317Z,13.23
2024-01-11T17:38:31.029Z,16.40
2024-01-11T17:41:32.854Z,16.88
2024-01-11T17:44:34.536Z,12.55
2024-01-11T17:47:37.086Z,11.75
2024-01-11T17:50:41.994Z,12.45
2024-01-11T17:53:46.012Z,10.73
2024-01-11T17:56:47.857Z,13.52
2024-01-11T17:59:50.624Z,15.77
2024-01-11T18:02:52.432Z,13.07
2024-01-11T18:05:54.282Z,13.27
2024-01-11T18:08:56.235Z,13.05
2024-01-11T18:11:57.981Z,20.92
2024-01-11T18:14:59.869Z,16.65
2024-01-11T18:18:05.674Z,22.85
2024-01-11T18:21:07.533Z,16.55
2024-01-11T18:24:09.327Z,15.02
2024-01-11T18:27:11.274Z,21.08
2024-01-11T18:30:14.113Z,21.05
2024-01-11T18:33:16.093Z,21.67
2024-01-11T18:36:21.228Z,20.85
2024-01-11T18:39:22.970Z,18.08
2024-01-11T18:42:25.027Z,15.45
2024-01-11T18:45:26.716Z,17.27
2024-01-11T18:48:28.574Z,19.63
2024-01-11T18:51:30.767Z,19.60
2024-01-11T18:54:33.717Z,14.20
2024-01-11T18:57:36.035Z,12.25
2024-01-11T19:00:37.925Z,12.63
2024-01-11T19:03:41.159Z,14.02
2024-01-11T19:09:48.383Z,14.02
2024-01-11T19:12:50.515Z,12.13
2024-01-11T19:15:53.942Z,15.43
2024-01-11T19:18:55.970Z,19.20
2024-01-11T19:21:58.058Z,13.65
2024-01-11T19:24:59.794Z,10.10
2024-01-11T19:28:03.182Z,9.13
2024-01-11T19:31:05.665Z,7.15
2024-01-11T19:34:07.556Z,8.10
2024-01-11T19:37:10.518Z,9.77
2024-01-11T19:40:13.691Z,10.38
2024-01-11T19:43:15.404Z,9.95
2024-01-11T19:46:20.633Z,9.70
2024-01-11T19:49:22.524Z,10.15
2024-01-11T19:52:24.604Z,10.75
2024-01-11T19:55:26.432Z,9.90
2024-01-11T19:58:30.972Z,10.13
2024-01-11T20:01:33.270Z,11.40
2024-01-11T20:04:35.116Z,12.18
2024-01-11T20:07:36.814Z,26.17
2024-01-11T20:10:39.439Z,33.08
2024-01-11T20:13:42.286Z,18.63
2024-01-11T20:16:44.956Z,13.38
2024-01-11T20:19:52.385Z,17.85
2024-01-11T20:22:54.453Z,16.70
2024-01-11T20:25:58.193Z,13.90
2024-01-11T20:29:00.104Z,14.40
2024-01-11T20:32:01.800Z,13.10
2024-01-11T20:35:03.945Z,11.07
2024-01-11T20:38:05.687Z,13.15
2024-01-11T20:41:07.808Z,12.93
2024-01-11T20:44:12.765Z,12.13
2024-01-11T20:47:14.531Z,9.85
2024-01-11T20:50:16.262Z,14.85
2024-01-11T20:53:17.936Z,15.45
2024-01-11T20:56:19.821Z,15.82
2024-01-11T20:59:21.666Z,15.68
2024-01-11T21:02:23.373Z,13.20
2024-01-11T21:05:25.501Z,16.67
2024-01-11T21:08:27.713Z,13.65
2024-01-11T21:11:29.526Z,13.85
2024-01-11T21:14:31.620Z,14.23
2024-01-11T21:17:33.621Z,13.35
2024-01-11T21:20:35.626Z,12.65
2024-01-11T21:23:37.513Z,13.27
2024-01-11T21:26:39.250Z,12.98
2024-01-11T21:29:41.265Z,15.30
2024-01-11T21:32:43.075Z,17.38
2024-01-11T21:35:45.167Z,21.13
2024-01-11T21:38:47.938Z,16.55
2024-01-11T21:41:50.417Z,20.33
2024-01-11T21:44:52.716Z,18.45
2024-01-11T21:47:54.474Z,17.37
2024-01-11T21:50:56.324Z,14.57
2024-01-11T21:53:59.225Z,13.13
2024-01-11T21:57:01.233Z,14.85
2024-01-11T22:00:05.254Z,14.63
2024-01-11T22:03:07.043Z,15.65
2024-01-11T22:06:10.638Z,13.55
2024-01-11T22:09:12.374Z,12.35
2024-01-11T22:12:14.593Z,14.02
2024-01-11T22:15:16.363Z,14.13
2024-01-11T22:18:18.433Z,14.82
2024-01-11T22:21:20.473Z,14.52
2024-01-11T22:24:22.385Z,11.88
2024-01-11T22:27:25.562Z,13.55
2024-01-11T22:30:27.279Z,13.20
2024-01-11T22:33:48.993Z,12.75
2024-01-11T22:36:58.466Z,11.23
2024-01-11T22:40:00.896Z,10.63
2024-01-11T22:43:02.629Z,10.77
2024-01-11T22:46:04.681Z,9.35
2024-01-11T22:49:07.472Z,9.77
2024-01-11T22:52:09.227Z,10.52
2024-01-11T22:55:11.035Z,9.80
2024-01-11T22:58:12.676Z,11.27
2024-01-11T23:01:15.333Z,11.18
2024-01-11T23:04:17.170Z,9.93
2024-01-11T23:07:18.845Z,10.07
2024-01-11T23:10:21.245Z,9.95
2024-01-11T23:13:23.041Z,10.67
2024-01-11T23:16:24.742Z,10.50
2024-01-11T23:19:28.074Z,10.52
2024-01-11T23:22:29.907Z,10.88
2024-01-11T23:25:33.901Z,9.68
2024-01-11T23:28:35.692Z,10.55
2024-01-11T23:31:37.302Z,10.65
2024-01-11T23:34:39.222Z,10.70
2024-01-11T23:37:40.995Z,10.63
2024-01-11T23:40:42.730Z,11.35
2024-01-11T23:43:44.746Z,11.00
2024-01-11T23:46:46.528Z,11.35
2024-01-11T23:49:48.531Z,12.90
2024-01-11T23:52:50.688Z,11.87
2024-01-11T23:55:52.486Z,13.10
2024-01-11T23:58:54.179Z,11.77
